Time;durP1;ratioP1;P1;durP2;ratioP2;P2;SDS_P1;SDS_P2;PMS_P1;PMS_P2;Temp;Humidity;BMP_temperature;BMP_pressure;BME280_temperature;BME280_humidity;BME280_pressure;Samples;Min_cycle;Max_cycle;Signal;HPM_P1;HPM_P2
2023/04/28 00:02:08;;;;;;;6.80;2.90;;;;;;;21.42;33.64;99942.38;108194;1253;72136;-66
2023/04/28 00:04:35;;;;;;;5.00;2.20;;;;;;;21.34;33.75;99947.35;108057;1253;75183;-66
2023/04/28 00:07:02;;;;;;;6.40;2.60;;;;;;;21.07;34.11;99941.91;108113;1254;63086;-65
2023/04/28 00:09:29;;;;;;;7.90;2.80;;;;;;;21.12;33.86;99946.80;108066;1253;61185;-66
2023/04/28 00:11:56;;;;;;;5.50;2.80;;;;;;;21.04;34.04;99948.27;108065;1253;72296;-65
2023/04/28 00:14:24;;;;;;;7.70;2.90;;;;;;;21.20;33.82;99948.10;108086;1253;71029;-66
2023/04/28 00:16:51;;;;;;;9.80;2.20;;;;;;;21.34;33.61;99946.79;108069;1253;74738;-66
2023/04/28 00:19:20;;;;;;;8.00;2.60;;;;;;;21.38;33.59;99949.15;108028;1253;61844;-66
2023/04/28 00:21:47;;;;;;;7.50;2.50;;;;;;;21.34;33.49;99952.52;108075;1253;62080;-66
2023/04/28 00:24:14;;;;;;;7.60;2.30;;;;;;;21.38;33.21;99956.05;108079;1253;75026;-67
2023/04/28 00:26:41;;;;;;;6.90;2.50;;;;;;;21.39;33.21;99952.07;108073;1253;71106;-65
2023/04/28 00:29:09;;;;;;;6.20;2.70;;;;;;;21.29;33.33;99956.71;108083;1253;74964;-65
2023/04/28 00:31:35;;;;;;;5.40;2.30;;;;;;;21.39;33.14;99956.56;108099;1253;63101;-64
2023/04/28 00:34:03;;;;;;;8.10;2.80;;;;;;;21.57;32.83;99952.51;108106;1255;62098;-66
2023/04/28 00:36:31;;;;;;;4.00;2.50;;;;;;;21.57;32.73;99950.92;108070;1253;74775;-67
2023/04/28 00:38:59;;;;;;;9.50;2.30;;;;;;;21.65;32.69;99950.25;108069;1255;70118;-66
2023/04/28 00:41:26;;;;;;;5.30;2.80;;;;;;;21.62;32.65;99954.45;107987;1253;74820;-66
2023/04/28 00:43:54;;;;;;;5.90;2.40;;;;;;;21.62;32.46;99954.05;108095;1253;61604;-67
2023/04/28 00:46:27;;;;;;;5.20;2.50;;;;;;;21.52;32.58;99959.34;108098;1253;62071;-65
2023/04/28 00:48:54;;;;;;;9.00;2.70;;;;;;;21.61;32.44;99965.90;108116;1253;73633;-67
2023/04/28 00:51:22;;;;;;;7.90;2.60;;;;;;;21.60;32.37;99970.48;108065;1253;71082;-65
2023/04/28 00:53:50;;;;;;;5.20;2.50;;;;;;;21.61;32.43;99976.49;108065;1253;72425;-64
2023/04/28 00:56:17;;;;;;;5.00;2.80;;;;;;;21.84;31.91;99976.64;108097;1253;63204;-66
2023/04/28 00:58:44;;;;;;;7.90;2.40;;;;;;;21.75;32.28;99981.52;108258;1252;62620;-66
2023/04/28 01:01:11;;;;;;;7.20;2.70;;;;;;;21.57;32.31;99990.74;108133;1252;76129;-66
2023/04/28 01:03:39;;;;;;;7.00;2.60;;;;;;;21.67;32.22;99993.88;108085;1253;70265;-65
2023/04/28 01:06:08;;;;;;;5.60;2.70;;;;;;;21.76;32.14;99992.91;108125;1253;74998;-66
2023/04/28 01:08:36;;;;;;;6.70;2.60;;;;;;;21.83;31.88;99993.17;108206;1253;62085;-66
2023/04/28 01:11:06;;;;;;;6.90;2.40;;;;;;;21.65;32.25;100000.95;108039;1252;62267;-66
2023/04/28 01:13:52;;;;;;;9.20;2.70;;;;;;;21.71;32.12;99996.20;108209;1253;74093;-67
2023/04/28 01:16:20;;;;;;;7.70;2.50;;;;;;;21.68;32.02;99998.80;108126;1258;71378;-67
2023/04/28 01:18:47;;;;;;;4.70;2.70;;;;;;;21.75;31.83;99999.97;108254;1253;75007;-67
2023/04/28 01:21:14;;;;;;;5.70;2.50;;;;;;;21.69;32.00;100001.21;108000;1256;62555;-67
2023/04/28 01:23:45;;;;;;;6.20;2.70;;;;;;;21.84;31.49;99994.87;107971;1253;61455;-67
2023/04/28 01:26:12;;;;;;;9.30;2.80;;;;;;;21.77;31.84;99997.24;108067;1253;73093;-64
2023/04/28 01:28:38;;;;;;;5.40;2.90;;;;;;;22.04;31.41;99995.08;108027;1253;72214;-64
2023/04/28 01:31:05;;;;;;;10.90;3.10;;;;;;;21.74;31.86;100001.23;108098;1253;74607;-66
2023/04/28 01:33:33;;;;;;;6.30;2.80;;;;;;;21.29;32.34;100002.38;108088;1252;63099;-67
2023/04/28 01:36:00;;;;;;;7.10;2.60;;;;;;;21.00;32.46;100004.26;108077;1258;62135;-67
2023/04/28 01:38:27;;;;;;;4.70;2.50;;;;;;;20.92;32.65;100004.50;108250;1253;75657;-66
2023/04/28 01:40:54;;;;;;;9.80;2.90;;;;;;;20.86;32.64;100005.91;108158;1253;71536;-66
2023/04/28 01:43:21;;;;;;;7.90;2.70;;;;;;;21.00;32.51;100003.36;108212;1251;74640;-66
2023/04/28 01:45:48;;;;;;;7.20;2.80;;;;;;;21.31;32.25;100006.67;108150;1257;61665;-66
2023/04/28 01:48:15;;;;;;;5.20;2.50;;;;;;;21.42;32.02;100002.04;108065;1253;60703;-63
2023/04/28 01:50:45;;;;;;;6.40;2.60;;;;;;;21.74;31.44;100000.37;108319;1253;74365;-66
2023/04/28 01:53:13;;;;;;;8.10;2.50;;;;;;;21.48;31.50;99996.69;108140;1253;71915;-67
2023/04/28 01:55:40;;;;;;;6.50;2.10;;;;;;;21.43;31.50;99993.02;108209;1253;72100;-67
2023/04/28 01:58:07;;;;;;;4.60;2.40;;;;;;;21.44;31.72;99995.98;108025;1253;63527;-67
2023/04/28 02:00:34;;;;;;;5.20;2.40;;;;;;;21.43;31.62;99998.34;108108;1253;62434;-66
2023/04/28 02:03:02;;;;;;;6.20;2.80;;;;;;;21.58;31.51;99999.39;107964;1253;76033;-67
2023/04/28 02:05:29;;;;;;;5.80;2.70;;;;;;;21.60;31.24;100000.13;108075;1253;69709;-67
2023/04/28 02:07:56;;;;;;;8.60;2.60;;;;;;;21.52;31.26;100001.85;108027;1253;73843;-66
2023/04/28 02:10:24;;;;;;;8.60;3.40;;;;;;;21.48;31.63;100004.56;108039;1253;62298;-67
2023/04/28 02:12:51;;;;;;;4.90;2.30;;;;;;;21.67;31.26;100003.88;108075;1253;61376;-66
2023/04/28 02:15:18;;;;;;;9.00;2.60;;;;;;;21.65;31.32;100007.10;108126;1253;76573;-67
2023/04/28 02:17:46;;;;;;;10.90;2.80;;;;;;;21.70;31.29;100003.27;107995;1253;71648;-68
2023/04/28 02:20:13;;;;;;;7.90;2.60;;;;;;;21.47;31.16;99999.64;108053;1253;74541;-67
2023/04/28 02:22:40;;;;;;;7.30;3.00;;;;;;;21.36;31.27;99998.27;108006;1253;63202;-65
2023/04/28 02:25:08;;;;;;;6.50;2.60;;;;;;;21.17;31.51;99996.56;108092;1258;62216;-66
2023/04/28 02:27:37;;;;;;;5.50;2.50;;;;;;;21.14;31.39;99994.20;108136;1253;75627;-65
2023/04/28 02:30:05;;;;;;;4.30;2.50;;;;;;;21.25;31.55;99997.55;108043;1253;70659;-67
2023/04/28 02:32:32;;;;;;;3.50;2.40;;;;;;;21.13;31.59;99999.95;107966;1253;73705;-65
2023/04/28 02:34:59;;;;;;;7.50;3.00;;;;;;;21.18;31.88;100004.89;108026;1253;61957;-67
2023/04/28 02:37:26;;;;;;;6.40;2.50;;;;;;;21.11;31.68;100002.59;107979;1258;61213;-66
2023/04/28 02:39:54;;;;;;;5.10;2.70;;;;;;;20.90;31.75;100005.30;108069;1253;75027;-68
2023/04/28 02:42:22;;;;;;;8.30;2.60;;;;;;;21.26;31.44;100009.99;108146;1253;72241;-67
2023/04/28 02:44:49;;;;;;;6.20;2.70;;;;;;;21.15;31.54;100013.02;107992;1253;73185;-66
2023/04/28 02:47:16;;;;;;;5.60;2.50;;;;;;;21.13;31.69;100020.14;107886;1256;61950;-66
2023/04/28 02:49:46;;;;;;;7.40;2.30;;;;;;;21.12;31.83;100026.29;107963;1253;61997;-66
2023/04/28 02:52:15;;;;;;;5.80;2.80;;;;;;;21.29;31.53;100028.48;107977;1253;75268;-67
2023/04/28 02:54:42;;;;;;;4.60;2.50;;;;;;;21.49;31.23;100029.48;107692;1253;70335;-67
2023/04/28 02:57:09;;;;;;;7.80;2.60;;;;;;;21.43;31.10;100026.73;108010;1253;74989;-67
2023/04/28 02:59:35;;;;;;;4.20;2.10;;;;;;;21.39;31.15;100028.70;107982;1254;61460;-67
2023/04/28 03:02:02;;;;;;;8.30;2.60;;;;;;;21.47;31.25;100033.60;108045;1253;61537;-69
2023/04/28 03:04:29;;;;;;;4.10;2.30;;;;;;;21.45;30.96;100034.60;108072;1253;75966;-67
2023/04/28 03:06:57;;;;;;;7.50;2.90;;;;;;;21.31;31.31;100037.59;108127;1258;72244;-66
2023/04/28 03:09:24;;;;;;;5.60;2.90;;;;;;;21.60;30.96;100040.54;108074;1253;73758;-67
2023/04/28 03:11:51;;;;;;;9.20;3.10;;;;;;;21.68;30.93;100043.98;108077;1253;63560;-67
2023/04/28 03:14:19;;;;;;;11.00;3.00;;;;;;;21.64;30.92;100045.41;108216;1253;62634;-66
2023/04/28 03:16:46;;;;;;;7.70;2.50;;;;;;;21.64;30.90;100052.52;108054;1253;75648;-67
2023/04/28 03:19:13;;;;;;;9.40;2.40;;;;;;;21.85;30.60;100054.11;108121;1253;70296;-64
2023/04/28 03:21:41;;;;;;;4.70;2.20;;;;;;;21.95;30.47;100060.57;107988;1253;73099;-66
2023/04/28 03:24:08;;;;;;;6.60;2.40;;;;;;;21.89;30.42;100066.84;107931;1253;63305;-66
2023/04/28 03:26:36;;;;;;;3.80;2.20;;;;;;;21.79;30.87;100071.95;107898;1253;61336;-65
2023/04/28 03:29:03;;;;;;;5.00;2.60;;;;;;;21.84;30.62;100073.11;107998;1253;73728;-67
2023/04/28 03:31:30;;;;;;;9.90;2.60;;;;;;;21.77;30.70;100073.77;108085;1253;72186;-65
2023/04/28 03:33:58;;;;;;;4.20;2.40;;;;;;;21.89;30.59;100075.06;108041;1258;72455;-67
2023/04/28 03:36:26;;;;;;;5.30;2.30;;;;;;;21.83;30.58;100083.08;107982;1253;63308;-67
2023/04/28 03:38:54;;;;;;;7.00;2.80;;;;;;;21.65;30.68;100082.14;107952;1253;60407;-66
2023/04/28 03:41:21;;;;;;;7.20;2.80;;;;;;;21.87;30.44;100086.84;108004;1253;75009;-67
2023/04/28 03:44:08;;;;;;;5.90;2.60;;;;;;;21.53;30.70;100084.54;107980;1253;72677;-66
2023/04/28 03:46:44;;;;;;;5.00;2.20;;;;;;;21.82;30.47;100083.62;108072;1253;74811;-67
2023/04/28 03:49:12;;;;;;;3.70;2.50;;;;;;;22.03;30.25;100084.35;107948;1256;62340;-68
2023/04/28 03:51:38;;;;;;;5.70;2.60;;;;;;;22.17;29.99;100088.16;108160;1253;60290;-67
2023/04/28 03:54:06;;;;;;;4.90;2.40;;;;;;;22.02;30.14;100093.38;108044;1253;74157;-67
2023/04/28 03:56:34;;;;;;;6.10;2.40;;;;;;;21.95;30.13;100089.72;108125;1253;70602;-67
2023/04/28 03:59:01;;;;;;;6.80;2.90;;;;;;;21.72;30.54;100094.77;108010;1261;75118;-67
2023/04/28 04:01:28;;;;;;;5.00;2.20;;;;;;;21.98;30.16;100094.87;108061;1258;63369;-67
2023/04/28 04:03:55;;;;;;;6.50;2.50;;;;;;;22.06;30.09;100097.23;108070;1253;61310;-67
2023/04/28 04:06:23;;;;;;;5.90;2.40;;;;;;;21.69;30.60;100100.11;107980;1253;74482;-68
2023/04/28 04:08:50;;;;;;;6.20;2.60;;;;;;;21.56;30.59;100099.47;108167;1253;71558;-66
2023/04/28 04:11:17;;;;;;;8.40;2.70;;;;;;;21.63;30.64;100103.91;107891;1259;73887;-66
2023/04/28 04:13:44;;;;;;;3.80;2.10;;;;;;;21.79;30.30;100104.67;107913;1256;61663;-68
2023/04/28 04:16:16;;;;;;;5.80;2.50;;;;;;;21.81;30.10;100103.05;107964;1253;62283;-67
2023/04/28 04:18:44;;;;;;;7.70;2.40;;;;;;;21.82;29.98;100103.88;107973;1253;75611;-67
2023/04/28 04:21:23;;;;;;;5.00;2.50;;;;;;;21.75;30.18;100111.78;108062;1253;70227;-67
2023/04/28 04:23:51;;;;;;;5.10;2.30;;;;;;;21.88;29.97;100106.73;107904;1255;73669;-68
2023/04/28 04:26:18;;;;;;;6.60;2.70;;;;;;;21.92;30.22;100111.09;108123;1253;61236;-67
2023/04/28 04:28:46;;;;;;;7.60;2.40;;;;;;;22.11;29.79;100109.86;107970;1253;61705;-66
2023/04/28 04:31:14;;;;;;;5.60;2.30;;;;;;;22.12;29.81;100109.59;107937;1253;76043;-68
2023/04/28 04:33:41;;;;;;;6.00;2.30;;;;;;;22.00;29.70;100112.34;107976;1253;72968;-67
2023/04/28 04:36:09;;;;;;;4.80;2.30;;;;;;;21.97;29.28;100110.98;108139;1257;75403;-68
2023/04/28 04:38:36;;;;;;;4.10;2.40;;;;;;;21.90;29.56;100113.73;108101;1253;63895;-67
2023/04/28 04:41:14;;;;;;;7.50;2.50;;;;;;;21.80;29.57;100116.24;108146;1253;61073;-68
2023/04/28 04:43:41;;;;;;;7.70;2.50;;;;;;;21.66;29.66;100115.77;108093;1253;75219;-68
2023/04/28 04:46:09;;;;;;;4.70;2.30;;;;;;;22.03;29.83;100118.03;107924;1253;72364;-67
2023/04/28 04:48:36;;;;;;;5.90;2.30;;;;;;;22.33;29.26;100117.04;107950;1253;74780;-68
2023/04/28 04:51:03;;;;;;;4.80;2.50;;;;;;;22.61;28.71;100112.32;107933;1253;60831;-66
2023/04/28 04:53:30;;;;;;;5.90;2.20;;;;;;;22.73;28.88;100109.82;107942;1258;60840;-68
2023/04/28 04:55:57;;;;;;;5.00;2.30;;;;;;;23.22;28.32;100113.41;108007;1257;73559;-69
2023/04/28 04:58:25;;;;;;;7.60;2.50;;;;;;;23.48;27.98;100106.54;108123;1251;71248;-67
2023/04/28 05:01:31;;;;;;;5.20;2.10;;;;;;;23.47;27.79;100115.08;107953;1252;74977;-67
2023/04/28 05:03:58;;;;;;;4.00;2.20;;;;;;;23.89;26.94;100118.39;107983;1253;62629;-67
2023/04/28 05:06:26;;;;;;;6.40;2.60;;;;;;;24.15;26.74;100123.34;108227;1252;61418;-66
2023/04/28 05:08:58;;;;;;;4.60;2.30;;;;;;;24.50;26.25;100125.27;108159;1253;75731;-67
2023/04/28 05:11:25;;;;;;;4.70;2.00;;;;;;;24.47;26.27;100128.75;107951;1253;72510;-69
2023/04/28 05:13:52;;;;;;;7.60;2.50;;;;;;;24.65;26.36;100123.73;107957;1256;75162;-68
2023/04/28 05:16:19;;;;;;;4.90;2.20;;;;;;;25.15;25.99;100124.46;108158;1253;61651;-67
2023/04/28 05:18:47;;;;;;;4.60;2.10;;;;;;;25.56;25.41;100121.73;108038;1252;62471;-68
2023/04/28 05:21:16;;;;;;;8.40;2.20;;;;;;;25.60;25.27;100121.11;108207;1252;75906;-68
2023/04/28 05:23:43;;;;;;;4.20;1.80;;;;;;;25.64;24.84;100118.89;108190;1253;72475;-66
2023/04/28 05:26:10;;;;;;;3.90;1.80;;;;;;;25.80;24.87;100116.80;108194;1253;74909;-67
2023/04/28 05:28:39;;;;;;;4.40;1.80;;;;;;;26.00;24.32;100118.71;108054;1256;61837;-70
2023/04/28 05:31:07;;;;;;;3.90;2.00;;;;;;;26.65;23.93;100110.80;108137;1253;62453;-66
2023/04/28 05:33:34;;;;;;;3.60;1.80;;;;;;;26.79;23.78;100114.73;108237;1253;74068;-69
2023/04/28 05:36:02;;;;;;;4.90;2.00;;;;;;;27.44;22.86;100117.88;108196;1253;71451;-68
2023/04/28 05:38:30;;;;;;;5.40;1.70;;;;;;;28.00;22.41;100123.21;108136;1253;73976;-68
2023/04/28 05:40:58;;;;;;;4.30;1.70;;;;;;;28.21;21.98;100128.03;108109;1254;61878;-67
2023/04/28 05:43:25;;;;;;;4.20;1.80;;;;;;;28.16;21.83;100127.83;108216;1253;61312;-69
2023/04/28 05:45:52;;;;;;;5.90;2.10;;;;;;;28.47;21.64;100135.83;108211;1253;75633;-69
2023/04/28 05:48:20;;;;;;;4.60;1.90;;;;;;;28.38;21.76;100135.73;108122;1253;71360;-66
2023/04/28 05:50:47;;;;;;;7.60;2.20;;;;;;;28.26;21.44;100131.45;108244;1252;73419;-70
2023/04/28 05:53:15;;;;;;;9.10;1.90;;;;;;;28.16;21.60;100136.43;108160;1253;61341;-68
2023/04/28 05:55:42;;;;;;;4.80;2.00;;;;;;;28.32;21.12;100132.31;108060;1253;62354;-66
2023/04/28 05:58:09;;;;;;;5.60;2.00;;;;;;;28.22;21.82;100136.67;108127;1253;75810;-68
2023/04/28 06:00:36;;;;;;;4.30;1.90;;;;;;;28.49;21.10;100138.23;108224;1253;72789;-69
2023/04/28 06:03:04;;;;;;;6.00;1.60;;;;;;;28.95;21.38;100141.75;108018;1253;71411;-69
2023/04/28 06:05:32;;;;;;;5.60;1.80;;;;;;;28.74;21.09;100144.54;108296;1257;62593;-68
2023/04/28 06:07:59;;;;;;;4.30;1.70;;;;;;;28.70;20.78;100141.70;108246;1253;61815;-68
2023/04/28 06:10:26;;;;;;;9.60;2.60;;;;;;;28.38;20.84;100137.16;108100;1253;75657;-69
2023/04/28 06:12:54;;;;;;;7.50;2.30;;;;;;;28.38;20.84;100134.98;108234;1253;69567;-68
2023/04/28 06:15:21;;;;;;;7.20;2.00;;;;;;;28.51;20.97;100141.34;108103;1253;74936;-66
2023/04/28 06:17:48;;;;;;;5.40;2.10;;;;;;;28.71;20.94;100144.02;108038;1253;62265;-67
2023/04/28 06:20:16;;;;;;;5.60;1.70;;;;;;;28.65;20.57;100136.88;108194;1253;62303;-67
2023/04/28 06:22:43;;;;;;;4.30;2.20;;;;;;;29.03;20.37;100141.31;107943;1253;74644;-68
2023/04/28 06:25:11;;;;;;;2.50;1.50;;;;;;;29.24;20.32;100146.21;108208;1253;70940;-68
2023/04/28 06:27:44;;;;;;;4.40;1.70;;;;;;;29.31;20.47;100147.23;108174;1253;75086;-67
2023/04/28 06:30:20;;;;;;;6.50;1.70;;;;;;;29.95;19.89;100145.20;107970;1253;62977;-70
2023/04/28 06:32:47;;;;;;;5.40;1.60;;;;;;;30.32;19.70;100152.34;107630;1253;675907;-68
2023/04/28 06:36:51;;;;;;;18.40;5.20;;;;;;;27.62;21.96;100152.86;104825;1291;600273;-68
2023/04/28 06:39:18;;;;;;;4.20;1.60;;;;;;;29.64;20.41;100144.70;107237;1266;59170;-69
2023/04/28 06:41:46;;;;;;;5.00;1.70;;;;;;;30.20;19.64;100148.55;107237;1266;61610;-67
2023/04/28 06:44:14;;;;;;;12.00;2.90;;;;;;;30.47;18.90;100144.84;107221;1266;73762;-71
2023/04/28 06:46:41;;;;;;;4.50;1.50;;;;;;;31.05;18.67;100147.98;107216;1266;72763;-71
2023/04/28 06:49:09;;;;;;;2.20;1.30;;;;;;;31.43;18.48;100144.56;107299;1266;73115;-70
2023/04/28 06:51:36;;;;;;;6.70;1.60;;;;;;;31.30;17.82;100149.49;107039;1264;411519;-72
2023/04/28 06:54:03;;;;;;;7.40;2.00;;;;;;;30.87;17.89;100153.20;107395;1264;61136;-72
2023/04/28 06:56:31;;;;;;;4.80;1.70;;;;;;;30.48;18.09;100155.70;107376;1264;74339;-72
2023/04/28 06:58:58;;;;;;;2.90;1.60;;;;;;;29.93;18.39;100155.20;107398;1264;71106;-69
2023/04/28 07:01:25;;;;;;;4.70;1.70;;;;;;;30.02;18.85;100157.71;107318;1264;73672;-69
2023/04/28 07:03:53;;;;;;;4.80;1.30;;;;;;;30.16;18.57;100153.86;107548;1261;62832;-69
2023/04/28 07:06:21;;;;;;;3.20;1.50;;;;;;;30.48;18.79;100156.61;107496;1260;62225;-68
2023/04/28 07:08:48;;;;;;;4.50;1.30;;;;;;;31.15;18.42;100158.76;107519;1260;75198;-69
2023/04/28 07:11:16;;;;;;;4.40;1.10;;;;;;;31.76;17.73;100155.13;107501;1261;69450;-68
2023/04/28 07:13:45;;;;;;;2.90;1.60;;;;;;;31.44;17.59;100162.30;107509;1260;73585;-70
2023/04/28 07:16:12;;;;;;;3.90;1.80;;;;;;;31.04;17.62;100166.91;107471;1261;61879;-68
2023/04/28 07:18:39;;;;;;;3.10;1.70;;;;;;;31.18;17.74;100168.05;108135;1253;62670;-69
2023/04/28 07:21:07;;;;;;;5.80;1.40;;;;;;;31.29;17.67;100173.08;107891;1253;74050;-68
2023/04/28 07:23:37;;;;;;;3.50;1.20;;;;;;;30.76;17.25;100171.73;107917;1252;72688;-68
2023/04/28 07:26:04;;;;;;;4.70;1.50;;;;;;;30.67;17.31;100173.91;108137;1253;72322;-69
2023/04/28 07:28:32;;;;;;;4.50;1.40;;;;;;;30.60;16.84;100169.71;108049;1253;60912;-68
2023/04/28 07:30:59;;;;;;;3.50;1.50;;;;;;;30.69;16.82;100176.91;108126;1257;62146;-70
2023/04/28 07:33:26;;;;;;;5.30;1.50;;;;;;;30.81;17.01;100176.30;108124;1256;74972;-70
2023/04/28 07:35:54;;;;;;;3.90;1.50;;;;;;;30.43;16.48;100178.25;108051;1253;71195;-70
2023/04/28 07:38:21;;;;;;;6.80;1.60;;;;;;;30.48;16.39;100179.23;108088;1253;73024;-70
2023/04/28 07:40:52;;;;;;;2.00;1.10;;;;;;;30.78;16.24;100178.00;108093;1253;61166;-70
2023/04/28 07:43:20;;;;;;;3.30;1.40;;;;;;;31.24;15.53;100179.81;108089;1253;59956;-69
2023/04/28 07:45:48;;;;;;;3.50;1.10;;;;;;;30.80;16.32;100181.70;108114;1253;73439;-68
2023/04/28 07:48:16;;;;;;;4.50;1.60;;;;;;;30.56;15.48;100186.95;108014;1253;68678;-68
2023/04/28 07:50:43;;;;;;;3.20;1.40;;;;;;;30.36;15.82;100184.27;107886;1253;74687;-69
2023/04/28 07:53:10;;;;;;;7.70;1.30;;;;;;;30.68;15.76;100180.31;107961;1257;62200;-68
2023/04/28 07:55:40;;;;;;;7.30;1.40;;;;;;;30.56;15.43;100180.30;108002;1253;60360;-68
2023/04/28 07:58:07;;;;;;;3.00;1.30;;;;;;;30.80;15.34;100182.10;107999;1253;73071;-69
2023/04/28 08:00:35;;;;;;;3.10;1.40;;;;;;;30.76;15.53;100185.86;108077;1253;69471;-68
2023/04/28 08:03:02;;;;;;;2.90;1.40;;;;;;;30.08;15.49;100186.63;108072;1256;74575;-67
2023/04/28 08:05:29;;;;;;;13.30;2.80;;;;;;;29.47;15.75;100192.38;108054;1254;61684;-68
2023/04/28 08:07:58;;;;;;;9.30;1.60;;;;;;;29.11;16.10;100199.00;108120;1253;60569;-68
2023/04/28 08:10:27;;;;;;;1.90;1.40;;;;;;;29.08;16.00;100200.14;107971;1253;74425;-68
2023/04/28 08:12:54;;;;;;;2.70;1.50;;;;;;;28.87;15.85;100201.41;108162;1253;72424;-68
2023/04/28 08:15:22;;;;;;;2.40;1.30;;;;;;;29.03;15.64;100204.45;108036;1253;74792;-70
2023/04/28 08:17:49;;;;;;;4.30;1.50;;;;;;;29.59;15.72;100197.88;108097;1253;60613;-68
2023/04/28 08:20:18;;;;;;;2.60;1.40;;;;;;;29.72;15.47;100201.14;107915;1253;60801;-67
2023/04/28 08:22:50;;;;;;;3.80;1.50;;;;;;;30.16;15.34;100196.51;108023;1253;71459;-67
2023/04/28 08:25:17;;;;;;;3.00;1.40;;;;;;;30.35;14.94;100200.40;108123;1253;72817;-68
2023/04/28 08:27:45;;;;;;;2.40;1.40;;;;;;;30.82;14.47;100190.53;108119;1253;74800;-68
2023/04/28 08:30:12;;;;;;;5.10;1.20;;;;;;;31.25;15.01;100189.15;108096;1253;62279;-68
2023/04/28 08:32:39;;;;;;;2.00;1.10;;;;;;;32.02;14.54;100191.24;108097;1253;60047;-69
2023/04/28 08:35:07;;;;;;;4.30;1.20;;;;;;;32.32;14.20;100188.02;108116;1253;75320;-68
2023/04/28 08:37:35;;;;;;;2.50;1.00;;;;;;;32.56;14.26;100192.55;108090;1253;72167;-69
2023/04/28 08:40:03;;;;;;;3.30;1.20;;;;;;;32.03;14.06;100194.64;107966;1256;72520;-69
2023/04/28 08:42:30;;;;;;;3.10;1.00;;;;;;;31.68;14.06;100187.59;107983;1256;61150;-70
2023/04/28 08:45:00;;;;;;;3.20;1.50;;;;;;;31.32;14.27;100190.77;108184;1253;62255;-71
2023/04/28 08:47:34;;;;;;;4.10;1.70;;;;;;;31.51;13.92;100188.44;108133;1253;75351;-69
2023/04/28 08:50:06;;;;;;;4.50;1.40;;;;;;;31.67;14.27;100189.88;108124;1253;71133;-69
2023/04/28 08:52:33;;;;;;;3.20;1.20;;;;;;;31.71;13.87;100183.93;108156;1253;74500;-68
2023/04/28 08:55:05;;;;;;;3.80;1.10;;;;;;;32.07;13.53;100178.73;108202;1253;61645;-68
2023/04/28 08:57:38;;;;;;;5.50;1.10;;;;;;;32.10;14.08;100189.16;107994;1253;59541;-69
2023/04/28 09:00:09;;;;;;;4.10;1.20;;;;;;;31.79;13.70;100185.65;108018;1253;75310;-70
2023/04/28 09:02:36;;;;;;;8.60;1.30;;;;;;;31.47;13.47;100192.16;108071;1253;69048;-68
2023/04/28 09:05:06;;;;;;;3.40;1.40;;;;;;;31.45;13.92;100193.34;108009;1253;74977;-70
2023/04/28 09:07:35;;;;;;;5.80;1.40;;;;;;;31.79;13.81;100195.29;108043;1253;61724;-69
2023/04/28 09:10:18;;;;;;;4.50;1.40;;;;;;;32.17;13.86;100189.02;108062;1253;62207;-68
2023/04/28 09:12:46;;;;;;;4.90;1.50;;;;;;;32.31;13.41;100182.67;108062;1253;72857;-68
2023/04/28 09:15:26;;;;;;;10.40;1.70;;;;;;;32.50;13.35;100177.55;108083;1253;72352;-68
2023/04/28 09:17:54;;;;;;;5.20;1.20;;;;;;;32.75;13.41;100182.81;108136;1254;73578;-68
2023/04/28 09:20:22;;;;;;;4.90;1.00;;;;;;;32.99;13.30;100183.92;108014;1253;62586;-67
2023/04/28 09:22:49;;;;;;;4.20;1.50;;;;;;;33.25;13.09;100186.90;108102;1253;59170;-69
2023/04/28 09:25:17;;;;;;;5.90;1.40;;;;;;;33.50;12.95;100191.58;108078;1253;72335;-70
2023/04/28 09:27:45;;;;;;;3.60;1.30;;;;;;;33.41;12.60;100204.39;108017;1253;72088;-70
2023/04/28 09:30:12;;;;;;;4.30;1.20;;;;;;;33.11;12.65;100195.39;108180;1253;74120;-69
2023/04/28 09:32:39;;;;;;;3.20;1.20;;;;;;;33.23;12.81;100192.95;108058;1255;61492;-69
2023/04/28 09:35:07;;;;;;;4.10;1.10;;;;;;;33.66;12.74;100192.10;108112;1253;61972;-68
2023/04/28 09:37:34;;;;;;;5.70;1.00;;;;;;;33.39;12.74;100193.97;107992;1260;73516;-68
2023/04/28 09:40:06;;;;;;;2.50;1.20;;;;;;;32.91;13.07;100190.04;107980;1253;70559;-69
2023/04/28 09:42:38;;;;;;;4.70;1.00;;;;;;;33.11;13.29;100183.95;108060;1253;71047;-67
2023/04/28 09:45:12;;;;;;;5.20;1.10;;;;;;;33.19;13.00;100182.75;107952;1253;59825;-70
2023/04/28 09:47:45;;;;;;;6.80;1.20;;;;;;;32.52;13.11;100184.23;108084;1253;61614;-69
2023/04/28 09:50:15;;;;;;;8.70;1.30;;;;;;;32.47;13.41;100184.11;108030;1254;74162;-69
2023/04/28 09:52:45;;;;;;;2.60;1.00;;;;;;;32.80;12.71;100181.79;107994;1253;71343;-67
2023/04/28 09:55:13;;;;;;;1.90;1.10;;;;;;;32.95;12.50;100175.46;107999;1256;72255;-70
2023/04/28 09:57:40;;;;;;;3.70;1.10;;;;;;;33.37;13.00;100176.58;107927;1255;60935;-69
2023/04/28 10:00:08;;;;;;;2.30;0.90;;;;;;;33.01;12.80;100181.61;107679;1256;60507;-68
2023/04/28 10:02:36;;;;;;;3.50;1.00;;;;;;;32.94;12.95;100185.14;107950;1254;74184;-68
2023/04/28 10:05:08;;;;;;;5.10;1.10;;;;;;;33.30;12.69;100186.13;107936;1254;71477;-70
2023/04/28 10:07:36;;;;;;;3.30;1.30;;;;;;;33.21;12.54;100190.59;107952;1255;71361;-70
2023/04/28 10:10:04;;;;;;;5.90;1.10;;;;;;;33.18;12.72;100195.81;107874;1256;61638;-70
2023/04/28 10:12:31;;;;;;;3.20;1.10;;;;;;;32.73;12.57;100186.14;107918;1256;60643;-70
2023/04/28 10:14:58;;;;;;;2.30;0.90;;;;;;;32.15;12.96;100193.52;107939;1254;75120;-71
2023/04/28 10:17:28;;;;;;;3.80;0.90;;;;;;;31.81;13.28;100196.11;107867;1254;72975;-70
2023/04/28 10:19:56;;;;;;;5.10;1.40;;;;;;;31.46;13.26;100201.33;107992;1254;73225;-68
2023/04/28 10:22:44;;;;;;;5.10;1.50;;;;;;;31.39;13.81;100196.20;107891;1254;61723;-69
2023/04/28 10:25:11;;;;;;;2.60;1.00;;;;;;;31.52;13.98;100184.65;107941;1254;62643;-69
2023/04/28 10:27:43;;;;;;;2.40;1.00;;;;;;;31.49;13.45;100180.47;107888;1256;75265;-69
2023/04/28 10:30:23;;;;;;;2.10;1.00;;;;;;;31.58;14.18;100182.77;107856;1256;71163;-71
2023/04/28 10:33:05;;;;;;;4.80;1.00;;;;;;;31.85;13.91;100184.20;107866;1255;75129;-70
2023/04/28 10:35:35;;;;;;;5.10;1.10;;;;;;;32.23;13.42;100185.58;107883;1256;62482;-69
2023/04/28 10:38:09;;;;;;;2.80;1.20;;;;;;;32.53;13.55;100183.35;107909;1255;62421;-69
2023/04/28 10:40:40;;;;;;;3.10;0.80;;;;;;;32.41;13.32;100188.49;107903;1254;72450;-69
2023/04/28 10:43:08;;;;;;;3.10;1.30;;;;;;;32.63;13.23;100185.83;107897;1258;69460;-70
2023/04/28 10:45:51;;;;;;;1.50;1.00;;;;;;;32.64;13.26;100190.08;107921;1255;73604;-70
2023/04/28 10:48:38;;;;;;;4.80;1.10;;;;;;;32.49;12.74;100185.34;107846;1254;60319;-70
2023/04/28 10:51:06;;;;;;;2.20;1.10;;;;;;;32.40;12.90;100189.38;107962;1254;60508;-70
2023/04/28 10:53:47;;;;;;;3.30;0.90;;;;;;;32.43;13.13;100184.02;107929;1254;73063;-69
2023/04/28 10:56:15;;;;;;;4.80;1.20;;;;;;;33.13;12.94;100185.27;107998;1256;72649;-70
2023/04/28 10:58:45;;;;;;;2.70;1.10;;;;;;;33.20;12.78;100180.45;107895;1255;71312;-69
2023/04/28 11:01:18;;;;;;;3.30;1.30;;;;;;;33.03;12.65;100185.40;107896;1256;60477;-68
2023/04/28 11:03:46;;;;;;;6.00;1.40;;;;;;;33.08;12.41;100179.45;107897;1254;60960;-69
2023/04/28 11:06:22;;;;;;;2.30;1.00;;;;;;;33.11;12.93;100179.91;107896;1258;75931;-70
2023/04/28 11:08:50;;;;;;;2.10;1.10;;;;;;;32.79;12.84;100175.02;107924;1256;72377;-69
2023/04/28 11:11:25;;;;;;;1.50;1.00;;;;;;;33.09;12.78;100174.64;107912;1256;74686;-69
2023/04/28 11:13:54;;;;;;;3.40;1.00;;;;;;;33.43;12.78;100181.35;107993;1255;60443;-68
2023/04/28 11:16:23;;;;;;;4.30;1.30;;;;;;;33.55;12.36;100175.80;107947;1254;60530;-68
2023/04/28 11:18:54;;;;;;;2.90;1.10;;;;;;;33.68;12.21;100179.18;107969;1258;74484;-68
2023/04/28 11:21:23;;;;;;;5.60;1.10;;;;;;;33.44;12.42;100167.10;107957;1258;70738;-69
2023/04/28 11:23:51;;;;;;;2.40;0.90;;;;;;;33.49;12.33;100162.55;107956;1256;75065;-68
2023/04/28 11:26:18;;;;;;;1.80;1.00;;;;;;;33.17;12.63;100160.08;108077;1256;62610;-69
2023/04/28 11:28:47;;;;;;;3.10;1.10;;;;;;;32.89;12.72;100162.83;107907;1254;62512;-72